Foxholm, North Dakota
Current Conditions -  °F | °C
As of 11:58 PM on Wednesday 26 Nov 2014 (Local Time) from KMIB Reporting Station
Clear Clear  
Wind Chill: -39°   Ceiling: Unl
Heat Index: -25°   Visibility: 10mi
Dew Point: -30°   Wind: 5mph
Humidity: 79%   Direction: 200°SSW
Pressure: 30.44"   Gusts: NA
Location:  48.3281°N, 101.856°W
Report Text: KMIB 270558Z AUTO 20004KT 10SM CLR M32/M34 A3044 RMK AO2 VIS 1/2 RWY29 SLP373 T13181344 11284 21328 411451328 57002
Loading
Personal Weather Stations






























Interactive Weather Map New forecast layout! Learn more

10-Day Weather Forecast

Advertisements
Track Severe Weather on mobile